Time;durP1;ratioP1;P1;durP2;ratioP2;P2;SDS_P1;SDS_P2;PMS_P1;PMS_P2;Temp;Humidity;BMP_temperature;BMP_pressure;BME280_temperature;BME280_humidity;BME280_pressure;Samples;Min_cycle;Max_cycle;Signal;HPM_P1;HPM_P2
2022/01/26 00:06:45;;;;;;;11.35;10.05;;;15.10;45.00;;;;;;5087939;28;20075;-66
2022/01/26 00:09:12;;;;;;;13.27;10.25;;;15.10;45.00;;;;;;5089387;28;20075;-65
2022/01/26 00:11:39;;;;;;;12.82;10.30;;;15.10;45.00;;;;;;5088302;28;20128;-65
2022/01/26 00:14:11;;;;;;;13.43;10.77;;;15.10;45.00;;;;;;5088151;28;20079;-65
2022/01/26 00:16:40;;;;;;;12.98;10.13;;;15.00;45.00;;;;;;5088042;28;20476;-65
2022/01/26 00:19:09;;;;;;;13.60;10.45;;;15.00;45.00;;;;;;5089236;28;20036;-65
2022/01/26 00:21:40;;;;;;;11.45;9.77;;;15.00;45.00;;;;;;5087954;28;20032;-65
2022/01/26 00:29:39;;;;;;;12.13;10.30;;;15.00;45.10;;;;;;5130225;27;20346;-65
2022/01/26 00:40:35;;;;;;;12.55;9.88;;;14.90;45.10;;;;;;5108160;28;20055;-65
2022/01/26 00:43:14;;;;;;;14.70;11.02;;;14.90;45.20;;;;;;5108962;28;20035;-65
2022/01/26 00:45:40;;;;;;;12.52;10.60;;;14.90;45.20;;;;;;5108534;28;20035;-65
2022/01/26 00:48:08;;;;;;;12.15;9.77;;;14.80;45.10;;;;;;5107722;28;20483;-66
2022/01/26 00:50:36;;;;;;;14.65;9.70;;;14.90;45.20;;;;;;5109372;28;20118;-65
2022/01/26 00:53:03;;;;;;;11.25;9.73;;;14.80;45.20;;;;;;5108154;28;20506;-65
2022/01/26 00:55:29;;;;;;;11.65;10.10;;;14.80;45.20;;;;;;5108287;28;20047;-65
2022/01/26 00:57:55;;;;;;;13.65;10.60;;;14.80;45.20;;;;;;5107919;28;20055;-65
2022/01/26 01:00:25;;;;;;;14.57;11.40;;;14.80;45.20;;;;;;5109290;28;20035;-65
2022/01/26 01:02:53;;;;;;;15.00;12.35;;;14.80;45.20;;;;;;5109146;28;20044;-65
2022/01/26 01:05:23;;;;;;;11.55;9.30;;;14.80;45.20;;;;;;5108176;28;20100;-65
2022/01/26 01:07:52;;;;;;;10.77;9.03;;;14.80;45.30;;;;;;5109437;28;20071;-66
2022/01/26 01:10:21;;;;;;;11.35;8.63;;;14.70;45.40;;;;;;5108046;28;20382;-65
2022/01/26 01:12:49;;;;;;;11.02;8.00;;;14.70;45.50;;;;;;5142175;27;20089;-65
2022/01/26 01:15:16;;;;;;;8.80;7.38;;;14.80;45.60;;;;;;5107909;28;20078;-66
2022/01/26 01:17:50;;;;;;;7.93;7.07;;;15.00;45.50;;;;;;5107775;28;20054;-66
2022/01/26 01:20:38;;;;;;;9.13;6.90;;;15.10;45.30;;;;;;5107710;28;20036;-65
2022/01/26 01:31:42;;;;;;;8.35;6.93;;;16.40;43.70;;;;;;5129738;27;20573;-65
2022/01/26 01:34:09;;;;;;;8.55;7.22;;;16.70;43.20;;;;;;5128011;28;20054;-65
2022/01/26 01:36:37;;;;;;;9.45;7.60;;;16.90;42.50;;;;;;5128831;28;20561;-66
2022/01/26 01:39:07;;;;;;;8.15;7.32;;;17.20;42.20;;;;;;5129058;28;20040;-66
2022/01/26 01:41:34;;;;;;;7.25;6.55;;;17.40;41.80;;;;;;5129161;28;20032;-65
2022/01/26 01:43:59;;;;;;;8.68;7.18;;;17.60;41.50;;;;;;5128963;28;20486;-66
2022/01/26 01:46:27;;;;;;;9.40;7.13;;;17.80;41.10;;;;;;5130132;27;20054;-66
2022/01/26 01:48:53;;;;;;;7.68;6.80;;;18.00;40.80;;;;;;5128487;28;20051;-66
2022/01/26 01:51:19;;;;;;;8.15;7.03;;;18.20;40.60;;;;;;5129839;28;20081;-66
2022/01/26 01:53:45;;;;;;;8.55;6.90;;;18.30;40.20;;;;;;5128554;28;20492;-65
2022/01/26 01:56:13;;;;;;;6.63;5.97;;;18.50;40.10;;;;;;5128569;28;20042;-66
2022/01/26 01:58:42;;;;;;;7.57;6.78;;;18.60;39.80;;;;;;5129887;27;20395;-66
2022/01/26 02:01:08;;;;;;;7.53;6.72;;;18.70;39.50;;;;;;5128493;28;20086;-65
2022/01/26 02:03:34;;;;;;;7.43;6.65;;;18.90;39.40;;;;;;5128284;28;20043;-66
2022/01/26 02:06:00;;;;;;;7.47;6.38;;;19.00;39.20;;;;;;5129568;27;20043;-66
2022/01/26 02:08:26;;;;;;;8.15;7.10;;;19.10;39.00;;;;;;5129779;27;20487;-67
2022/01/26 02:10:52;;;;;;;6.88;6.18;;;19.10;38.80;;;;;;5129498;28;20053;-65
2022/01/26 02:13:24;;;;;;;7.07;6.30;;;19.20;38.70;;;;;;5128120;28;20044;-66
2022/01/26 02:16:00;;;;;;;9.32;6.18;;;19.30;38.60;;;;;;5111816;28;20036;-65
2022/01/26 02:21:58;;;;;;;7.20;5.90;;;19.40;38.30;;;;;;5130333;27;20432;-65
2022/01/26 02:49:32;;;;;;;7.50;6.68;;;19.90;37.40;;;;;;5129513;28;20047;-65
2022/01/26 02:57:42;;;;;;;6.30;5.55;;;20.00;37.20;;;;;;5128206;28;20047;-65
2022/01/26 03:00:17;;;;;;;7.07;6.10;;;20.00;37.30;;;;;;5128073;28;20407;-66
2022/01/26 03:03:13;;;;;;;7.82;6.05;;;20.00;37.20;;;;;;5129376;27;20046;-65
2022/01/26 03:05:37;;;;;;;7.35;6.43;;;20.00;37.10;;;;;;5129433;28;20039;-66
2022/01/26 03:08:06;;;;;;;6.13;5.43;;;20.00;37.90;;;;;;5128184;28;20039;-65
2022/01/26 03:10:40;;;;;;;7.00;6.30;;;20.00;37.10;;;;;;5128273;28;20051;-66
2022/01/26 03:13:18;;;;;;;7.53;6.05;;;20.00;37.10;;;;;;5128197;28;20105;-65
2022/01/26 03:15:49;;;;;;;6.18;5.57;;;20.10;37.10;;;;;;5128057;28;20122;-65
2022/01/26 03:21:04;;;;;;;7.55;6.70;;;20.10;36.90;;;;;;5130179;27;20418;-66
2022/01/26 03:34:31;;;;;;;6.35;5.75;;;20.00;37.10;;;;;;5130342;27;20382;-66
2022/01/26 03:37:04;;;;;;;6.25;5.65;;;19.90;37.10;;;;;;5128888;28;20044;-65
2022/01/26 03:39:30;;;;;;;6.45;5.68;;;20.00;37.10;;;;;;5129245;28;20054;-66
2022/01/26 03:42:05;;;;;;;6.40;5.28;;;20.00;37.10;;;;;;5129089;27;20039;-65
2022/01/26 03:44:32;;;;;;;8.73;6.55;;;20.00;37.00;;;;;;5130062;27;20084;-65
2022/01/26 03:46:58;;;;;;;8.20;7.40;;;20.10;37.00;;;;;;5129005;28;20111;-65
2022/01/26 03:49:28;;;;;;;7.75;6.55;;;20.10;36.90;;;;;;5128652;28;20542;-65
2022/01/26 03:51:53;;;;;;;6.88;6.18;;;20.10;36.80;;;;;;5129902;27;20038;-65
2022/01/26 03:54:23;;;;;;;6.53;5.82;;;20.10;36.80;;;;;;5128592;28;20051;-65
2022/01/26 03:56:55;;;;;;;7.30;6.47;;;20.10;36.70;;;;;;5128792;27;20035;-65
2022/01/26 03:59:23;;;;;;;6.43;5.78;;;20.20;36.70;;;;;;5128392;28;20495;-65
2022/01/26 04:01:49;;;;;;;7.38;6.70;;;20.20;36.70;;;;;;5128392;28;20084;-65
2022/01/26 04:04:15;;;;;;;7.15;5.88;;;20.20;36.60;;;;;;5128390;28;20039;-66
2022/01/26 04:06:41;;;;;;;6.90;6.20;;;20.20;36.60;;;;;;5128425;28;20043;-66
2022/01/26 04:09:08;;;;;;;6.07;5.47;;;20.30;36.60;;;;;;5145890;27;20043;-65
2022/01/26 04:11:45;;;;;;;7.05;6.35;;;20.20;36.50;;;;;;5128668;27;20047;-65
2022/01/26 04:14:14;;;;;;;7.10;6.40;;;20.30;36.60;;;;;;5128014;28;20039;-66
2022/01/26 04:16:41;;;;;;;7.18;6.47;;;20.20;36.50;;;;;;5128515;28;20039;-65
2022/01/26 04:19:09;;;;;;;6.93;6.15;;;20.20;36.50;;;;;;5129506;27;20035;-65
2022/01/26 04:24:26;;;;;;;6.22;5.63;;;20.20;36.60;;;;;;5128045;28;20043;-66
2022/01/26 04:29:42;;;;;;;7.53;6.78;;;20.10;36.50;;;;;;5130089;27;20977;-65
2022/01/26 04:32:13;;;;;;;8.38;6.28;;;20.10;36.60;;;;;;5129057;28;20047;-65
2022/01/26 04:34:39;;;;;;;8.23;6.47;;;20.10;36.60;;;;;;5128851;28;20039;-65
2022/01/26 04:40:21;;;;;;;7.90;6.03;;;20.10;36.60;;;;;;5128617;27;20679;-65
2022/01/26 04:45:15;;;;;;;7.53;5.70;;;20.10;36.60;;;;;;5154391;27;1173595;-65
2022/01/26 04:47:41;;;;;;;6.65;5.95;;;20.10;36.60;;;;;;5153060;27;20279;-65
2022/01/26 04:50:09;;;;;;;6.45;5.65;;;20.10;36.70;;;;;;5153015;27;20529;-65
2022/01/26 04:52:34;;;;;;;6.88;6.18;;;20.00;36.60;;;;;;5152974;27;20526;-66
2022/01/26 04:55:00;;;;;;;6.32;5.72;;;20.10;36.60;;;;;;5153002;27;20050;-65
2022/01/26 04:57:26;;;;;;;6.53;5.78;;;20.10;36.60;;;;;;5153236;27;20038;-66
2022/01/26 04:59:51;;;;;;;6.00;5.40;;;20.10;36.60;;;;;;5152798;27;20477;-65
2022/01/26 05:02:17;;;;;;;6.13;5.57;;;20.00;36.60;;;;;;5171381;27;20034;-66
2022/01/26 05:04:43;;;;;;;6.07;5.47;;;20.10;36.60;;;;;;5171292;27;20474;-65
2022/01/26 05:07:08;;;;;;;6.47;5.88;;;20.10;36.60;;;;;;5153062;27;20385;-65
2022/01/26 05:09:34;;;;;;;6.50;5.90;;;20.10;36.50;;;;;;5171326;27;20038;-66
2022/01/26 05:12:02;;;;;;;6.13;5.53;;;20.10;36.50;;;;;;5171318;27;20038;-65
2022/01/26 05:14:27;;;;;;;6.10;5.50;;;20.10;36.40;;;;;;5152475;27;20046;-66
2022/01/26 05:16:53;;;;;;;7.40;5.43;;;20.10;36.50;;;;;;5152490;27;20038;-67
2022/01/26 05:19:18;;;;;;;7.38;6.15;;;20.10;36.40;;;;;;5171159;27;20042;-65
2022/01/26 05:21:44;;;;;;;6.40;5.68;;;20.10;36.40;;;;;;5171200;27;20564;-65
2022/01/26 05:24:10;;;;;;;7.10;5.88;;;20.20;36.40;;;;;;5152473;27;20493;-65
2022/01/26 05:26:38;;;;;;;5.82;5.00;;;20.10;36.30;;;;;;5152234;27;20070;-66
2022/01/26 05:29:04;;;;;;;6.82;5.70;;;20.10;36.30;;;;;;5171087;27;20044;-65
2022/01/26 05:31:30;;;;;;;6.80;5.95;;;20.10;36.30;;;;;;5170896;27;20090;-65
2022/01/26 05:33:56;;;;;;;6.28;5.05;;;20.10;36.30;;;;;;5170778;27;20034;-66
2022/01/26 05:36:21;;;;;;;5.80;4.95;;;20.20;36.40;;;;;;5170973;27;20117;-65
2022/01/26 05:38:47;;;;;;;6.50;4.82;;;20.10;36.30;;;;;;5152095;27;20042;-65
2022/01/26 05:41:13;;;;;;;6.40;5.35;;;20.10;36.30;;;;;;5151968;27;20049;-65
2022/01/26 05:43:40;;;;;;;6.75;5.47;;;20.10;36.30;;;;;;5170120;27;20543;-66
2022/01/26 05:46:11;;;;;;;6.22;5.15;;;20.10;36.30;;;;;;5152159;27;20065;-66
2022/01/26 05:48:43;;;;;;;5.55;4.93;;;20.10;36.40;;;;;;5170559;27;20077;-66
2022/01/26 05:51:10;;;;;;;5.78;5.03;;;20.10;36.40;;;;;;5151754;27;20050;-66
2022/01/26 05:53:38;;;;;;;6.57;5.07;;;20.00;36.40;;;;;;5170566;27;20038;-66
2022/01/26 05:56:07;;;;;;;6.60;5.07;;;20.00;36.40;;;;;;5141031;27;20512;-65
2022/01/26 05:58:33;;;;;;;5.30;4.78;;;20.00;36.40;;;;;;5137961;27;20057;-65
2022/01/26 06:01:00;;;;;;;6.22;5.63;;;19.90;36.40;;;;;;5138030;27;20042;-65
2022/01/26 06:03:27;;;;;;;5.55;5.05;;;19.90;36.40;;;;;;5156309;27;20386;-66
2022/01/26 06:05:54;;;;;;;7.03;5.97;;;19.90;36.50;;;;;;5137944;27;20074;-66
2022/01/26 06:08:24;;;;;;;5.35;4.85;;;19.80;36.50;;;;;;5156458;27;20110;-67
2022/01/26 06:10:51;;;;;;;;;;;19.80;36.50;;;;;;5138417;27;20043;-66
2022/01/26 06:13:17;;;;;;;6.00;5.30;;;19.80;36.50;;;;;;5156162;27;19915;-66
2022/01/26 06:15:43;;;;;;;6.32;5.43;;;19.80;36.60;;;;;;5155982;27;20423;-66
2022/01/26 06:18:10;;;;;;;5.93;5.25;;;19.80;36.70;;;;;;5156283;27;20038;-65
2022/01/26 06:20:37;;;;;;;6.53;5.00;;;19.70;36.60;;;;;;5156307;27;20397;-66
2022/01/26 06:23:03;;;;;;;5.55;5.00;;;19.70;36.60;;;;;;5137659;27;20099;-66
2022/01/26 06:25:29;;;;;;;5.90;5.30;;;19.70;36.60;;;;;;5136905;27;20082;-67
2022/01/26 06:27:59;;;;;;;7.78;5.38;;;19.70;36.80;;;;;;5169435;27;20037;-66
2022/01/26 06:30:26;;;;;;;6.25;5.40;;;19.70;37.40;;;;;;5140128;27;20038;-67
2022/01/26 06:32:52;;;;;;;6.47;5.63;;;19.70;37.60;;;;;;5132941;27;20047;-65
2022/01/26 06:35:21;;;;;;;5.95;5.18;;;19.80;37.90;;;;;;5138003;27;20035;-67
2022/01/26 06:37:46;;;;;;;9.65;5.50;;;19.80;38.20;;;;;;5150879;27;20034;-67
2022/01/26 06:40:13;;;;;;;7.03;5.65;;;19.80;38.40;;;;;;5145292;27;20530;-66
2022/01/26 06:42:58;;;;;;;11.48;7.82;;;19.80;38.20;;;;;;5138442;27;20425;-64
2022/01/26 06:45:32;;;;;;;8.38;6.53;;;19.80;37.70;;;;;;5134792;27;20656;-68
2022/01/26 06:50:44;;;;;;;7.07;5.60;;;19.90;37.70;;;;;;5133267;27;20039;-66
2022/01/26 06:53:10;;;;;;;6.57;5.50;;;20.00;37.70;;;;;;5151958;27;20913;-65
2022/01/26 06:55:36;;;;;;;10.57;5.95;;;20.00;37.60;;;;;;5133182;27;20055;-64
2022/01/26 06:58:03;;;;;;;7.97;5.03;;;20.10;37.70;;;;;;5120056;27;20052;-68
2022/01/26 07:00:28;;;;;;;6.88;5.53;;;20.10;37.80;;;;;;5127229;27;20461;-67
2022/01/26 07:02:54;;;;;;;7.68;6.47;;;20.30;37.60;;;;;;5143796;27;20038;-69
2022/01/26 07:05:24;;;;;;;7.05;5.70;;;20.40;37.20;;;;;;5126272;27;20183;-67
2022/01/26 07:07:50;;;;;;;9.10;6.20;;;20.40;36.90;;;;;;5126950;27;20617;-66
2022/01/26 07:10:16;;;;;;;8.00;5.80;;;20.50;36.90;;;;;;5155197;27;20124;-69
2022/01/26 07:12:45;;;;;;;7.88;6.43;;;20.50;36.90;;;;;;5137167;27;20060;-67
2022/01/26 07:21:34;;;;;;;16.95;10.98;;;20.50;37.10;;;;;;5119971;27;20072;-67
2022/01/26 07:23:48;;;;;;;11.02;7.20;;;20.40;36.30;;;;;;5129332;27;20058;-64
2022/01/26 07:26:14;;;;;;;14.65;10.52;;;20.50;36.50;;;;;;5124510;27;20027;-72
2022/01/26 07:28:40;;;;;;;18.35;10.38;;;20.50;36.30;;;;;;5125783;27;20027;-66
2022/01/26 07:31:07;;;;;;;12.23;7.97;;;20.50;36.00;;;;;;5128417;27;20035;-63
2022/01/26 07:33:33;;;;;;;17.27;11.93;;;20.50;36.40;;;;;;5122140;27;20047;-62
2022/01/26 07:35:59;;;;;;;16.00;11.32;;;20.50;36.00;;;;;;5125163;27;20046;-68
2022/01/26 07:38:28;;;;;;;16.75;10.88;;;20.40;35.80;;;;;;5121642;27;20059;-67
2022/01/26 07:40:57;;;;;;;12.10;8.90;;;20.40;36.00;;;;;;5120509;27;20046;-70
2022/01/26 07:43:24;;;;;;;11.02;8.10;;;20.30;36.20;;;;;;5133203;27;20042;-67
2022/01/26 07:45:50;;;;;;;11.65;7.60;;;20.30;36.40;;;;;;5125211;27;20058;-67
2022/01/26 07:48:15;;;;;;;10.55;7.93;;;20.30;36.70;;;;;;5133402;27;20039;-69
2022/01/26 07:50:41;;;;;;;9.52;7.72;;;20.30;36.90;;;;;;5118355;27;20513;-68
2022/01/26 07:53:13;;;;;;;8.32;6.75;;;20.30;37.10;;;;;;5136767;27;20072;-68
2022/01/26 07:55:39;;;;;;;8.27;6.47;;;20.20;37.30;;;;;;5118608;27;20057;-72
2022/01/26 07:58:08;;;;;;;10.27;6.45;;;20.20;37.50;;;;;;5138934;27;20042;-66
2022/01/26 08:00:34;;;;;;;11.23;7.43;;;20.20;37.70;;;;;;5135074;27;20035;-70
2022/01/26 08:02:59;;;;;;;10.93;7.00;;;20.20;38.00;;;;;;5133587;27;20398;-70
2022/01/26 08:05:25;;;;;;;10.68;7.50;;;20.10;38.20;;;;;;5124364;27;20386;-69
2022/01/26 08:07:51;;;;;;;9.77;7.03;;;20.00;38.40;;;;;;5131195;27;20035;-67
2022/01/26 08:10:20;;;;;;;12.95;7.20;;;20.00;38.70;;;;;;5134327;27;20446;-63
2022/01/26 08:12:46;;;;;;;12.48;8.18;;;19.90;38.80;;;;;;5114579;27;20070;-60
2022/01/26 08:15:11;;;;;;;12.10;7.78;;;19.80;39.00;;;;;;5134444;27;20067;-65
2022/01/26 08:17:38;;;;;;;11.27;7.45;;;19.70;39.30;;;;;;5129628;27;20066;-71
2022/01/26 08:20:10;;;;;;;15.63;7.10;;;19.60;39.50;;;;;;5129275;27;20438;-67
2022/01/26 08:22:36;;;;;;;14.65;8.07;;;19.60;40.10;;;;;;5130228;27;20031;-71
2022/01/26 08:25:01;;;;;;;14.00;8.20;;;19.50;40.30;;;;;;5120500;27;20112;-70
2022/01/26 08:27:32;;;;;;;9.73;7.03;;;19.50;40.70;;;;;;5118363;27;20039;-70
2022/01/26 08:30:05;;;;;;;9.73;7.05;;;19.40;40.90;;;;;;5132849;27;20544;-71
2022/01/26 08:32:31;;;;;;;8.52;7.43;;;19.40;41.20;;;;;;5116405;27;20035;-68
2022/01/26 08:35:00;;;;;;;11.00;7.85;;;19.40;41.40;;;;;;5131164;27;20801;-70
2022/01/26 08:37:28;;;;;;;12.25;8.38;;;19.40;41.70;;;;;;5130818;27;20038;-72
2022/01/26 08:39:54;;;;;;;11.40;7.70;;;19.40;41.70;;;;;;5131391;27;20110;-68
2022/01/26 08:42:20;;;;;;;14.10;8.45;;;19.30;41.90;;;;;;5117508;27;20039;-67
2022/01/26 08:44:46;;;;;;;16.27;8.40;;;19.30;42.20;;;;;;5133961;27;20050;-69
2022/01/26 08:47:11;;;;;;;13.57;8.20;;;19.30;42.30;;;;;;5118726;27;20107;-68
2022/01/26 08:49:37;;;;;;;15.15;8.80;;;19.30;42.40;;;;;;5124078;27;20031;-70
2022/01/26 08:52:03;;;;;;;13.50;8.80;;;19.30;42.50;;;;;;5117992;27;20042;-74
2022/01/26 08:54:29;;;;;;;12.63;9.57;;;19.20;42.40;;;;;;5114485;27;20062;-68
2022/01/26 08:56:55;;;;;;;15.52;8.70;;;19.20;42.50;;;;;;5116356;27;20046;-66
2022/01/26 08:59:23;;;;;;;14.20;8.90;;;19.10;42.60;;;;;;5114039;27;20484;-81
2022/01/26 09:01:49;;;;;;;11.73;8.68;;;19.20;42.90;;;;;;5124618;27;20122;-70
2022/01/26 09:04:16;;;;;;;18.77;9.52;;;19.10;43.10;;;;;;5126465;27;20095;-71
2022/01/26 09:06:52;;;;;;;15.40;9.48;;;19.10;43.30;;;;;;5116555;27;20050;-69
2022/01/26 09:09:20;;;;;;;17.70;9.85;;;19.10;43.50;;;;;;5129796;27;20045;-68
2022/01/26 09:11:54;;;;;;;16.52;10.00;;;19.10;43.60;;;;;;5111711;27;20110;-73
2022/01/26 09:14:22;;;;;;;13.88;10.20;;;19.10;43.70;;;;;;5129338;27;20097;-73
2022/01/26 09:16:51;;;;;;;16.05;10.00;;;19.10;43.70;;;;;;5128553;27;20081;-72
2022/01/26 09:19:27;;;;;;;16.02;9.88;;;19.10;43.90;;;;;;5120130;27;20071;-70
2022/01/26 09:21:54;;;;;;;15.15;9.82;;;19.20;44.00;;;;;;5115420;27;20035;-65
2022/01/26 09:24:27;;;;;;;15.52;11.35;;;19.20;44.00;;;;;;5111386;27;20473;-69
2022/01/26 09:26:53;;;;;;;13.13;10.05;;;19.10;43.90;;;;;;5130106;27;20046;-70
2022/01/26 09:29:18;;;;;;;30.38;22.27;;;19.20;43.90;;;;;;5119524;27;20038;-69
2022/01/26 09:31:47;;;;;;;34.58;20.83;;;19.10;42.30;;;;;;5135470;27;20023;-72
2022/01/26 09:34:15;;;;;;;32.30;24.90;;;19.10;41.90;;;;;;5135425;27;20393;-70
2022/01/26 09:36:40;;;;;;;38.45;28.15;;;19.10;41.10;;;;;;5133650;27;20039;-73
2022/01/26 09:39:06;;;;;;;37.25;27.98;;;19.00;40.30;;;;;;5118377;27;20221;-70
2022/01/26 09:41:34;;;;;;;33.40;26.08;;;19.00;39.80;;;;;;5117702;27;20715;-72
2022/01/26 09:44:03;;;;;;;29.23;23.40;;;19.00;39.80;;;;;;5112324;27;20116;-70
2022/01/26 09:46:30;;;;;;;23.95;19.90;;;19.10;40.40;;;;;;5113832;27;20079;-73
2022/01/26 09:48:56;;;;;;;36.17;26.40;;;19.30;40.70;;;;;;5115906;27;20121;-70
2022/01/26 09:51:22;;;;;;;23.90;19.05;;;19.40;39.70;;;;;;5134672;27;20038;-74
2022/01/26 09:54:07;;;;;;;34.80;26.17;;;19.60;39.70;;;;;;5131131;27;20462;-74
2022/01/26 09:56:32;;;;;;;26.10;20.42;;;19.80;38.50;;;;;;5120647;27;20039;-74
2022/01/26 09:58:58;;;;;;;32.20;24.33;;;19.90;38.80;;;;;;5118639;27;20058;-69
2022/01/26 10:01:24;;;;;;;32.33;20.80;;;20.10;38.30;;;;;;5125205;27;20067;-68
2022/01/26 10:03:51;;;;;;;23.63;19.63;;;20.20;38.40;;;;;;5118647;27;20042;-68
2022/01/26 10:06:27;;;;;;;20.85;17.27;;;20.30;38.40;;;;;;5132547;27;20643;-71
2022/01/26 10:09:02;;;;;;;18.67;15.80;;;20.40;38.40;;;;;;5116248;27;20035;-69
2022/01/26 10:17:25;;;;;;;22.10;18.20;;;20.60;37.90;;;;;;5115684;27;20043;-70
2022/01/26 10:19:56;;;;;;;22.70;18.33;;;20.50;38.00;;;;;;5112869;27;20049;-69
2022/01/26 10:22:26;;;;;;;23.67;16.85;;;20.50;38.30;;;;;;5112593;27;20050;-73
2022/01/26 10:25:02;;;;;;;25.95;20.73;;;20.50;38.60;;;;;;5114999;27;20027;-71
2022/01/26 10:27:39;;;;;;;23.30;18.23;;;20.40;38.10;;;;;;5118348;27;20095;-71
2022/01/26 10:30:09;;;;;;;21.42;17.13;;;20.30;38.40;;;;;;5129156;27;20097;-68
2022/01/26 10:32:36;;;;;;;24.77;19.42;;;20.20;38.90;;;;;;5120940;27;20130;-71
2022/01/26 10:35:04;;;;;;;22.45;18.25;;;20.20;39.10;;;;;;5119320;27;20039;-72
2022/01/26 10:37:30;;;;;;;21.27;17.98;;;20.10;39.20;;;;;;5117465;27;20027;-74
2022/01/26 10:40:17;;;;;;;22.42;17.02;;;20.00;39.50;;;;;;5134770;27;20066;-70
2022/01/26 10:45:52;;;;;;;23.77;17.65;;;19.80;40.50;;;;;;5107625;27;20485;-69
2022/01/26 10:48:28;;;;;;;22.65;17.48;;;19.70;40.40;;;;;;5095467;28;20056;-69
2022/01/26 10:53:49;;;;;;;17.48;14.98;;;19.50;41.10;;;;;;5099593;28;20157;-70
2022/01/26 10:56:16;;;;;;;18.52;14.77;;;19.50;42.30;;;;;;5101151;28;20119;-72
2022/01/26 10:58:42;;;;;;;17.58;14.00;;;19.40;41.70;;;;;;5105444;28;20074;-69
2022/01/26 11:01:08;;;;;;;15.77;13.45;;;19.40;42.00;;;;;;5105337;28;20534;-68
2022/01/26 11:03:41;;;;;;;14.57;13.02;;;19.40;42.10;;;;;;5088806;28;20044;-70
2022/01/26 11:06:08;;;;;;;14.93;12.32;;;19.40;42.30;;;;;;5105772;28;20039;-75
2022/01/26 11:08:38;;;;;;;14.07;12.65;;;19.40;42.40;;;;;;5098615;28;20229;-71
2022/01/26 11:11:04;;;;;;;13.32;11.75;;;19.40;42.60;;;;;;5098874;28;20036;-68
2022/01/26 11:13:37;;;;;;;18.88;12.52;;;19.40;42.60;;;;;;5099340;28;20112;-67
2022/01/26 11:16:08;;;;;;;16.48;13.55;;;19.50;42.80;;;;;;5101687;27;20043;-70
2022/01/26 11:18:46;;;;;;;14.20;11.75;;;19.50;42.50;;;;;;5097741;28;20051;-70
2022/01/26 11:21:23;;;;;;;13.90;10.45;;;19.50;42.80;;;;;;5097644;28;20431;-62
2022/01/26 11:23:50;;;;;;;15.55;12.23;;;19.40;42.60;;;;;;5103462;27;20082;-67
2022/01/26 11:26:24;;;;;;;17.58;12.60;;;19.40;42.70;;;;;;5091511;28;20727;-73
2022/01/26 11:28:50;;;;;;;27.88;13.93;;;19.40;42.60;;;;;;5086565;28;20051;-69
2022/01/26 11:31:17;;;;;;;16.52;12.63;;;19.40;42.00;;;;;;5088172;28;20024;-65
2022/01/26 11:33:48;;;;;;;16.65;12.00;;;19.30;42.30;;;;;;5095793;28;20578;-67
2022/01/26 11:36:17;;;;;;;17.90;11.40;;;19.30;42.30;;;;;;5103563;28;20071;-66
2022/01/26 11:52:56;;;;;;;11.98;9.48;;;19.20;42.60;;;;;;5072501;27;20805;-65
2022/01/26 12:04:07;;;;;;;16.65;12.07;;;19.20;42.60;;;;;;5093013;27;20193;-70
2022/01/26 12:06:41;;;;;;;20.08;12.32;;;19.10;42.00;;;;;;5078696;28;20048;-67
2022/01/26 12:09:08;;;;;;;18.02;12.05;;;19.10;41.60;;;;;;5074283;28;20040;-66
2022/01/26 12:11:34;;;;;;;15.88;11.90;;;19.00;41.10;;;;;;5077165;28;20556;-65
2022/01/26 12:14:06;;;;;;;16.42;10.57;;;19.00;40.90;;;;;;5077972;28;20035;-66
2022/01/26 12:16:42;;;;;;;16.20;8.75;;;19.00;41.20;;;;;;5074678;28;20041;-65
2022/01/26 12:36:35;;;;;;;9.73;6.90;;;19.20;40.20;;;;;;5133115;27;1166143;-67
2022/01/26 12:39:04;;;;;;;10.05;7.40;;;19.30;40.50;;;;;;5147011;27;20040;-66
2022/01/26 12:44:11;;;;;;;8.98;6.78;;;19.30;40.70;;;;;;5119874;27;1157858;-65
2022/01/26 12:46:39;;;;;;;10.45;6.90;;;19.40;40.90;;;;;;5127263;27;20537;-66
2022/01/26 12:49:10;;;;;;;9.23;6.95;;;19.40;41.10;;;;;;5128414;27;20072;-64
2022/01/26 12:51:42;;;;;;;9.05;7.03;;;19.40;41.30;;;;;;5128608;27;20575;-66
2022/01/26 12:54:11;;;;;;;11.23;6.97;;;19.40;41.60;;;;;;5128449;27;20035;-66
2022/01/26 12:56:37;;;;;;;14.65;7.10;;;19.50;41.70;;;;;;5128724;27;20039;-66
2022/01/26 12:59:06;;;;;;;10.38;6.70;;;19.50;41.90;;;;;;5128245;27;20053;-66
2022/01/26 13:01:33;;;;;;;9.43;7.40;;;19.40;42.20;;;;;;5127669;27;20051;-70
2022/01/26 13:04:04;;;;;;;11.65;7.38;;;19.40;42.30;;;;;;5146934;27;20697;-68
2022/01/26 13:06:34;;;;;;;10.15;7.63;;;19.30;42.50;;;;;;5128915;27;20509;-65
2022/01/26 13:09:18;;;;;;;10.15;7.10;;;19.30;42.70;;;;;;5128159;27;20035;-67
2022/01/26 13:11:47;;;;;;;9.68;6.85;;;19.20;43.30;;;;;;5146375;27;20042;-68
2022/01/26 13:14:22;;;;;;;11.35;7.82;;;19.20;43.40;;;;;;5126784;27;20697;-66
2022/01/26 13:26:13;;;;;;;11.93;7.05;;;19.00;44.40;;;;;;5146014;27;1168717;-66
2022/01/26 13:28:58;;;;;;;9.23;7.57;;;18.90;45.00;;;;;;5147937;27;20054;-65
2022/01/26 13:53:47;;;;;;;16.13;7.53;;;18.50;46.20;;;;;;5088176;28;20359;-67
2022/01/26 13:56:32;;;;;;;9.23;7.00;;;18.50;46.30;;;;;;5078832;28;20068;-69
2022/01/26 13:59:08;;;;;;;10.88;7.47;;;18.50;46.40;;;;;;5084309;28;20341;-66
2022/01/26 14:01:36;;;;;;;11.38;7.22;;;18.50;46.20;;;;;;5086265;28;20044;-72
2022/01/26 14:04:05;;;;;;;11.80;7.95;;;18.40;46.30;;;;;;5094305;28;20040;-70
2022/01/26 14:06:30;;;;;;;12.75;6.82;;;18.40;46.40;;;;;;5085359;28;20399;-69
2022/01/26 14:08:56;;;;;;;9.27;7.05;;;18.40;46.00;;;;;;5086161;28;20040;-70
2022/01/26 14:11:22;;;;;;;9.65;7.13;;;18.30;45.50;;;;;;5085713;28;20047;-70
2022/01/26 14:13:49;;;;;;;13.02;7.00;;;18.30;45.30;;;;;;5086585;28;20719;-70
2022/01/26 14:16:17;;;;;;;11.02;7.18;;;18.30;45.20;;;;;;5087303;28;20506;-68
2022/01/26 14:18:49;;;;;;;9.40;6.30;;;18.30;45.10;;;;;;5087586;28;20055;-68
2022/01/26 14:24:22;;;;;;;8.30;6.68;;;18.20;44.90;;;;;;5129971;27;20856;-70
2022/01/26 14:26:50;;;;;;;10.50;7.28;;;18.20;44.90;;;;;;5130102;28;20043;-70
2022/01/26 14:29:30;;;;;;;9.75;7.38;;;18.10;44.90;;;;;;5128965;28;20156;-70
2022/01/26 15:35:27;;;;;;;11.00;7.50;;;17.20;45.30;;;;;;5145404;27;1165518;-67
2022/01/26 15:44:03;;;;;;;7.45;6.07;;;17.00;45.50;;;;;;5127984;27;20350;-67
2022/01/26 16:05:48;;;;;;;7.82;5.95;;;16.90;45.50;;;;;;5087777;28;20041;-66
2022/01/26 16:08:25;;;;;;;12.52;6.53;;;16.90;45.50;;;;;;5089004;28;20054;-67
2022/01/26 16:35:09;;;;;;;7.00;5.35;;;16.80;45.50;;;;;;5128789;28;20051;-66
2022/01/26 17:26:44;;;;;;;9.07;5.97;;;16.50;45.80;;;;;;5088936;28;20079;-67
2022/01/26 18:04:49;;;;;;;7.75;6.40;;;16.30;45.90;;;;;;5129556;28;20067;-67
2022/01/26 18:13:01;;;;;;;9.52;6.03;;;16.20;45.80;;;;;;5128290;28;20108;-66
2022/01/26 18:13:41;;;;;;;8.40;6.55;;;16.20;45.90;;;;;;5128034;28;20047;-67
2022/01/26 18:15:35;;;;;;;6.78;5.75;;;16.20;45.90;;;;;;5129371;28;20414;-65
2022/01/26 18:25:48;;;;;;;9.10;5.60;;;16.20;45.90;;;;;;5128431;28;20047;-65
2022/01/26 18:32:08;;;;;;;8.13;5.43;;;16.20;46.10;;;;;;5130079;28;20035;-66
2022/01/26 18:51:13;;;;;;;9.00;6.13;;;16.00;46.90;;;;;;5088059;28;20070;-71
2022/01/26 18:53:39;;;;;;;7.05;6.18;;;16.00;47.00;;;;;;5088309;28;20040;-70
2022/01/26 18:56:07;;;;;;;14.55;6.93;;;16.00;47.20;;;;;;5087985;28;20470;-72
2022/01/26 18:58:36;;;;;;;12.20;6.50;;;16.00;48.10;;;;;;5087920;28;20040;-69
2022/01/26 19:01:01;;;;;;;12.25;6.70;;;16.00;49.20;;;;;;5089068;28;20048;-71
2022/01/26 19:03:27;;;;;;;11.73;8.25;;;16.00;50.40;;;;;;5089083;28;20059;-70
2022/01/26 19:05:55;;;;;;;11.80;7.70;;;16.00;49.90;;;;;;5087863;28;20446;-71
2022/01/26 19:08:21;;;;;;;11.57;7.47;;;16.00;49.60;;;;;;5087649;28;20097;-69
2022/01/26 19:10:53;;;;;;;9.82;7.70;;;15.90;49.40;;;;;;5088620;28;20483;-73
2022/01/26 19:13:25;;;;;;;9.23;5.97;;;15.90;49.30;;;;;;5087779;28;20032;-71
2022/01/26 19:15:53;;;;;;;13.45;8.25;;;15.90;49.10;;;;;;5088631;28;20480;-69
2022/01/26 19:18:25;;;;;;;9.75;7.55;;;15.80;49.00;;;;;;5087333;28;20035;-70
2022/01/26 19:21:05;;;;;;;7.72;6.15;;;15.80;49.00;;;;;;5087496;28;20040;-70
2022/01/26 19:23:55;;;;;;;10.13;7.22;;;15.80;48.90;;;;;;5087670;28;20139;-70
2022/01/26 19:26:27;;;;;;;10.02;7.10;;;15.80;48.90;;;;;;5087736;28;20040;-70
2022/01/26 19:29:00;;;;;;;10.15;6.57;;;15.80;48.80;;;;;;5087600;28;20044;-70
2022/01/26 19:32:02;;;;;;;9.57;6.45;;;15.70;48.80;;;;;;5087562;28;20048;-69
2022/01/26 19:50:55;;;;;;;8.65;6.78;;;15.60;48.50;;;;;;5130194;27;20353;-69
2022/01/26 19:53:21;;;;;;;8.43;7.20;;;15.60;48.50;;;;;;5128299;28;20082;-69
2022/01/26 19:55:47;;;;;;;8.18;5.82;;;15.60;48.50;;;;;;5128954;28;20075;-69
2022/01/26 19:58:13;;;;;;;8.13;6.72;;;15.60;48.50;;;;;;5128963;28;20055;-69